sensor_id;sensor_type;location;lat;lon;timestamp;P1;durP1;ratioP1;P2;durP2;ratioP2
61093;SDS011;46976;52.942;6.810;2022-07-29T02:58:00;6.43;;;2.65;;
61093;SDS011;46976;52.942;6.810;2022-07-29T03:00:27;7.03;;;2.42;;
61093;SDS011;46976;52.942;6.810;2022-07-29T03:02:54;7.80;;;2.50;;
61093;SDS011;46976;52.942;6.810;2022-07-29T03:05:21;4.95;;;2.28;;
61093;SDS011;46976;52.942;6.810;2022-07-29T03:07:50;6.88;;;2.75;;
61093;SDS011;46976;52.942;6.810;2022-07-29T03:12:43;6.45;;;2.40;;
61093;SDS011;46976;52.942;6.810;2022-07-29T03:15:09;6.60;;;2.38;;
61093;SDS011;46976;52.942;6.810;2022-07-29T03:17:35;6.55;;;2.50;;
61093;SDS011;46976;52.942;6.810;2022-07-29T03:20:02;5.57;;;2.45;;
61093;SDS011;46976;52.942;6.810;2022-07-29T03:22:29;6.40;;;2.58;;
61093;SDS011;46976;52.942;6.810;2022-07-29T03:24:55;7.15;;;2.63;;
61093;SDS011;46976;52.942;6.810;2022-07-29T03:27:21;6.65;;;2.40;;
61093;SDS011;46976;52.942;6.810;2022-07-29T03:29:47;5.88;;;2.40;;
61093;SDS011;46976;52.942;6.810;2022-07-29T03:32:13;7.15;;;2.50;;
61093;SDS011;46976;52.942;6.810;2022-07-29T03:34:39;6.25;;;2.15;;
61093;SDS011;46976;52.942;6.810;2022-07-29T03:37:05;7.18;;;2.60;;
61093;SDS011;46976;52.942;6.810;2022-07-29T03:39:33;6.80;;;2.40;;
61093;SDS011;46976;52.942;6.810;2022-07-29T03:42:00;6.65;;;2.28;;
61093;SDS011;46976;52.942;6.810;2022-07-29T03:44:27;6.40;;;2.30;;
61093;SDS011;46976;52.942;6.810;2022-07-29T03:46:55;5.78;;;2.30;;
61093;SDS011;46976;52.942;6.810;2022-07-29T03:49:21;7.93;;;2.17;;
61093;SDS011;46976;52.942;6.810;2022-07-29T03:51:48;6.95;;;2.45;;
61093;SDS011;46976;52.942;6.810;2022-07-29T03:54:14;5.75;;;2.45;;
61093;SDS011;46976;52.942;6.810;2022-07-29T03:56:42;4.93;;;2.40;;
61093;SDS011;46976;52.942;6.810;2022-07-29T03:59:11;6.88;;;2.47;;
61093;SDS011;46976;52.942;6.810;2022-07-29T04:01:38;7.35;;;2.50;;
61093;SDS011;46976;52.942;6.810;2022-07-29T04:04:04;4.75;;;1.90;;
61093;SDS011;46976;52.942;6.810;2022-07-29T04:06:40;6.38;;;2.42;;
61093;SDS011;46976;52.942;6.810;2022-07-29T04:09:07;5.90;;;2.20;;
61093;SDS011;46976;52.942;6.810;2022-07-29T04:11:33;6.10;;;2.47;;
61093;SDS011;46976;52.942;6.810;2022-07-29T04:14:00;5.43;;;2.28;;
61093;SDS011;46976;52.942;6.810;2022-07-29T04:16:26;6.78;;;2.40;;
61093;SDS011;46976;52.942;6.810;2022-07-29T04:18:52;6.13;;;2.28;;
61093;SDS011;46976;52.942;6.810;2022-07-29T04:21:18;7.28;;;2.45;;
61093;SDS011;46976;52.942;6.810;2022-07-29T04:23:44;5.93;;;2.28;;
61093;SDS011;46976;52.942;6.810;2022-07-29T04:26:14;7.10;;;2.40;;
61093;SDS011;46976;52.942;6.810;2022-07-29T04:28:40;6.15;;;2.42;;
61093;SDS011;46976;52.942;6.810;2022-07-29T04:31:07;5.35;;;2.30;;
61093;SDS011;46976;52.942;6.810;2022-07-29T04:33:34;7.78;;;2.30;;
61093;SDS011;46976;52.942;6.810;2022-07-29T04:36:00;5.22;;;2.17;;
61093;SDS011;46976;52.942;6.810;2022-07-29T04:38:26;5.03;;;2.17;;
61093;SDS011;46976;52.942;6.810;2022-07-29T04:40:52;5.50;;;2.25;;
61093;SDS011;46976;52.942;6.810;2022-07-29T04:43:18;6.53;;;2.40;;
61093;SDS011;46976;52.942;6.810;2022-07-29T04:45:44;8.18;;;2.53;;
61093;SDS011;46976;52.942;6.810;2022-07-29T04:48:10;6.40;;;2.03;;
61093;SDS011;46976;52.942;6.810;2022-07-29T04:50:39;7.47;;;2.50;;
61093;SDS011;46976;52.942;6.810;2022-07-29T04:53:06;7.80;;;2.22;;
61093;SDS011;46976;52.942;6.810;2022-07-29T04:55:32;6.20;;;2.20;;
61093;SDS011;46976;52.942;6.810;2022-07-29T04:57:59;6.95;;;2.03;;
61093;SDS011;46976;52.942;6.810;2022-07-29T05:00:25;6.82;;;2.40;;
61093;SDS011;46976;52.942;6.810;2022-07-29T05:02:51;6.72;;;2.35;;
61093;SDS011;46976;52.942;6.810;2022-07-29T05:05:17;7.00;;;2.28;;
61093;SDS011;46976;52.942;6.810;2022-07-29T05:07:43;9.63;;;2.63;;
61093;SDS011;46976;52.942;6.810;2022-07-29T05:10:09;5.47;;;2.17;;
61093;SDS011;46976;52.942;6.810;2022-07-29T05:12:36;6.47;;;2.30;;
61093;SDS011;46976;52.942;6.810;2022-07-29T05:15:02;7.63;;;2.40;;
61093;SDS011;46976;52.942;6.810;2022-07-29T05:17:29;7.75;;;2.35;;
61093;SDS011;46976;52.942;6.810;2022-07-29T05:19:55;6.30;;;2.25;;
61093;SDS011;46976;52.942;6.810;2022-07-29T05:22:21;5.18;;;2.00;;
61093;SDS011;46976;52.942;6.810;2022-07-29T05:24:48;6.93;;;2.20;;
61093;SDS011;46976;52.942;6.810;2022-07-29T05:27:14;6.35;;;2.40;;
61093;SDS011;46976;52.942;6.810;2022-07-29T05:29:40;6.25;;;2.50;;
61093;SDS011;46976;52.942;6.810;2022-07-29T05:32:06;5.53;;;2.15;;
61093;SDS011;46976;52.942;6.810;2022-07-29T05:34:32;7.93;;;2.20;;
61093;SDS011;46976;52.942;6.810;2022-07-29T05:36:58;7.43;;;2.28;;
61093;SDS011;46976;52.942;6.810;2022-07-29T05:39:25;7.50;;;2.20;;
61093;SDS011;46976;52.942;6.810;2022-07-29T05:41:51;6.30;;;2.20;;
61093;SDS011;46976;52.942;6.810;2022-07-29T05:44:17;6.65;;;2.65;;
61093;SDS011;46976;52.942;6.810;2022-07-29T05:46:43;5.28;;;1.92;;
61093;SDS011;46976;52.942;6.810;2022-07-29T05:49:09;6.90;;;2.50;;
61093;SDS011;46976;52.942;6.810;2022-07-29T05:51:35;6.90;;;2.30;;
61093;SDS011;46976;52.942;6.810;2022-07-29T05:54:02;6.35;;;2.17;;
61093;SDS011;46976;52.942;6.810;2022-07-29T05:56:28;7.78;;;2.38;;
61093;SDS011;46976;52.942;6.810;2022-07-29T05:58:54;8.20;;;2.28;;
61093;SDS011;46976;52.942;6.810;2022-07-29T06:01:20;6.70;;;2.13;;
61093;SDS011;46976;52.942;6.810;2022-07-29T06:03:46;6.78;;;2.25;;
61093;SDS011;46976;52.942;6.810;2022-07-29T06:06:12;6.78;;;2.17;;
61093;SDS011;46976;52.942;6.810;2022-07-29T06:08:38;6.47;;;2.03;;
61093;SDS011;46976;52.942;6.810;2022-07-29T06:11:05;5.63;;;2.13;;
61093;SDS011;46976;52.942;6.810;2022-07-29T06:13:33;6.82;;;2.22;;
61093;SDS011;46976;52.942;6.810;2022-07-29T06:15:59;7.47;;;2.25;;
61093;SDS011;46976;52.942;6.810;2022-07-29T06:18:25;6.28;;;1.90;;
61093;SDS011;46976;52.942;6.810;2022-07-29T06:20:52;6.07;;;2.00;;
61093;SDS011;46976;52.942;6.810;2022-07-29T06:23:19;7.03;;;2.28;;
61093;SDS011;46976;52.942;6.810;2022-07-29T06:25:45;5.97;;;2.20;;
61093;SDS011;46976;52.942;6.810;2022-07-29T06:28:11;6.00;;;1.60;;
61093;SDS011;46976;52.942;6.810;2022-07-29T06:30:38;5.80;;;1.85;;
61093;SDS011;46976;52.942;6.810;2022-07-29T06:33:05;5.82;;;1.98;;
61093;SDS011;46976;52.942;6.810;2022-07-29T06:35:33;5.85;;;2.10;;
61093;SDS011;46976;52.942;6.810;2022-07-29T06:38:00;5.90;;;1.95;;
61093;SDS011;46976;52.942;6.810;2022-07-29T06:40:26;6.07;;;2.13;;
61093;SDS011;46976;52.942;6.810;2022-07-29T06:43:11;7.00;;;2.30;;
61093;SDS011;46976;52.942;6.810;2022-07-29T06:45:37;8.02;;;2.47;;
61093;SDS011;46976;52.942;6.810;2022-07-29T06:48:05;6.68;;;2.20;;
61093;SDS011;46976;52.942;6.810;2022-07-29T06:50:32;6.38;;;2.10;;
61093;SDS011;46976;52.942;6.810;2022-07-29T06:52:58;7.95;;;2.22;;
61093;SDS011;46976;52.942;6.810;2022-07-29T06:55:24;6.97;;;2.08;;
61093;SDS011;46976;52.942;6.810;2022-07-29T06:57:50;8.52;;;2.10;;
61093;SDS011;46976;52.942;6.810;2022-07-29T07:00:16;5.35;;;2.08;;
61093;SDS011;46976;52.942;6.810;2022-07-29T07:02:42;5.68;;;1.83;;
61093;SDS011;46976;52.942;6.810;2022-07-29T07:05:08;6.18;;;2.20;;
61093;SDS011;46976;52.942;6.810;2022-07-29T07:07:34;6.35;;;2.45;;
61093;SDS011;46976;52.942;6.810;2022-07-29T07:10:00;5.90;;;1.95;;
61093;SDS011;46976;52.942;6.810;2022-07-29T07:12:26;6.95;;;2.00;;
61093;SDS011;46976;52.942;6.810;2022-07-29T07:14:52;6.70;;;2.25;;
61093;SDS011;46976;52.942;6.810;2022-07-29T07:17:18;6.07;;;1.92;;
61093;SDS011;46976;52.942;6.810;2022-07-29T07:19:44;6.20;;;1.90;;
61093;SDS011;46976;52.942;6.810;2022-07-29T07:22:11;5.95;;;2.10;;
61093;SDS011;46976;52.942;6.810;2022-07-29T07:24:37;5.22;;;1.80;;
61093;SDS011;46976;52.942;6.810;2022-07-29T07:27:03;7.57;;;2.20;;
61093;SDS011;46976;52.942;6.810;2022-07-29T07:29:29;7.03;;;2.03;;
61093;SDS011;46976;52.942;6.810;2022-07-29T07:31:55;7.60;;;2.55;;
61093;SDS011;46976;52.942;6.810;2022-07-29T07:34:22;6.07;;;2.05;;
61093;SDS011;46976;52.942;6.810;2022-07-29T07:36:49;5.85;;;1.73;;
61093;SDS011;46976;52.942;6.810;2022-07-29T07:39:15;6.47;;;2.10;;
61093;SDS011;46976;52.942;6.810;2022-07-29T07:41:41;5.47;;;1.85;;
61093;SDS011;46976;52.942;6.810;2022-07-29T07:44:07;7.22;;;2.15;;
61093;SDS011;46976;52.942;6.810;2022-07-29T07:46:34;5.78;;;2.05;;
61093;SDS011;46976;52.942;6.810;2022-07-29T07:49:00;7.65;;;2.35;;
61093;SDS011;46976;52.942;6.810;2022-07-29T07:51:26;5.97;;;2.00;;
61093;SDS011;46976;52.942;6.810;2022-07-29T07:53:52;6.60;;;2.30;;
61093;SDS011;46976;52.942;6.810;2022-07-29T07:56:18;8.40;;;2.47;;
61093;SDS011;46976;52.942;6.810;2022-07-29T07:58:44;7.25;;;2.25;;
61093;SDS011;46976;52.942;6.810;2022-07-29T08:01:11;5.95;;;2.03;;
61093;SDS011;46976;52.942;6.810;2022-07-29T08:03:37;6.93;;;2.35;;
61093;SDS011;46976;52.942;6.810;2022-07-29T08:06:03;6.20;;;2.35;;
61093;SDS011;46976;52.942;6.810;2022-07-29T08:08:30;8.23;;;2.72;;
61093;SDS011;46976;52.942;6.810;2022-07-29T08:10:56;6.53;;;2.45;;
61093;SDS011;46976;52.942;6.810;2022-07-29T08:13:23;6.97;;;2.65;;
61093;SDS011;46976;52.942;6.810;2022-07-29T08:15:52;6.70;;;2.35;;
61093;SDS011;46976;52.942;6.810;2022-07-29T08:18:35;6.35;;;2.33;;
61093;SDS011;46976;52.942;6.810;2022-07-29T08:23:30;7.05;;;2.28;;
61093;SDS011;46976;52.942;6.810;2022-07-29T08:26:03;6.80;;;2.42;;
61093;SDS011;46976;52.942;6.810;2022-07-29T08:28:29;6.22;;;2.30;;
61093;SDS011;46976;52.942;6.810;2022-07-29T08:30:55;7.03;;;2.58;;
61093;SDS011;46976;52.942;6.810;2022-07-29T08:33:21;7.35;;;2.83;;
61093;SDS011;46976;52.942;6.810;2022-07-29T08:35:47;7.05;;;2.22;;
61093;SDS011;46976;52.942;6.810;2022-07-29T08:38:15;6.57;;;2.28;;
61093;SDS011;46976;52.942;6.810;2022-07-29T08:40:41;5.55;;;2.20;;
61093;SDS011;46976;52.942;6.810;2022-07-29T08:43:07;6.47;;;2.50;;
61093;SDS011;46976;52.942;6.810;2022-07-29T08:45:43;6.55;;;2.20;;
61093;SDS011;46976;52.942;6.810;2022-07-29T08:48:11;7.85;;;2.50;;
61093;SDS011;46976;52.942;6.810;2022-07-29T08:50:37;7.68;;;2.38;;
61093;SDS011;46976;52.942;6.810;2022-07-29T08:53:03;6.50;;;2.15;;
61093;SDS011;46976;52.942;6.810;2022-07-29T08:55:31;5.97;;;2.10;;
61093;SDS011;46976;52.942;6.810;2022-07-29T08:57:57;6.32;;;2.30;;
61093;SDS011;46976;52.942;6.810;2022-07-29T09:00:24;5.35;;;2.13;;
61093;SDS011;46976;52.942;6.810;2022-07-29T09:02:51;5.55;;;1.92;;
61093;SDS011;46976;52.942;6.810;2022-07-29T09:05:22;6.53;;;2.35;;
61093;SDS011;46976;52.942;6.810;2022-07-29T09:07:48;6.80;;;2.17;;
61093;SDS011;46976;52.942;6.810;2022-07-29T09:10:15;6.82;;;2.50;;
61093;SDS011;46976;52.942;6.810;2022-07-29T09:12:41;6.45;;;2.10;;
61093;SDS011;46976;52.942;6.810;2022-07-29T09:15:07;9.38;;;2.30;;
61093;SDS011;46976;52.942;6.810;2022-07-29T09:17:42;6.75;;;2.10;;
61093;SDS011;46976;52.942;6.810;2022-07-29T09:20:10;6.93;;;2.17;;
61093;SDS011;46976;52.942;6.810;2022-07-29T09:22:36;8.60;;;2.23;;
61093;SDS011;46976;52.942;6.810;2022-07-29T09:25:03;7.43;;;2.33;;
61093;SDS011;46976;52.942;6.810;2022-07-29T09:27:29;8.40;;;2.35;;
61093;SDS011;46976;52.942;6.810;2022-07-29T09:29:59;5.43;;;2.20;;
61093;SDS011;46976;52.942;6.810;2022-07-29T09:32:25;6.90;;;2.28;;
61093;SDS011;46976;52.942;6.810;2022-07-29T09:35:13;5.25;;;2.20;;
61093;SDS011;46976;52.942;6.810;2022-07-29T09:37:37;6.85;;;2.45;;
61093;SDS011;46976;52.942;6.810;2022-07-29T09:42:42;10.13;;;2.80;;
61093;SDS011;46976;52.942;6.810;2022-07-29T09:45:08;7.22;;;2.50;;
61093;SDS011;46976;52.942;6.810;2022-07-29T09:47:40;6.75;;;2.65;;
61093;SDS011;46976;52.942;6.810;2022-07-29T09:50:06;8.45;;;3.17;;
61093;SDS011;46976;52.942;6.810;2022-07-29T09:52:41;7.40;;;2.50;;
61093;SDS011;46976;52.942;6.810;2022-07-29T09:55:10;4.93;;;2.10;;
61093;SDS011;46976;52.942;6.810;2022-07-29T09:57:36;6.40;;;2.42;;
61093;SDS011;46976;52.942;6.810;2022-07-29T10:00:07;6.50;;;2.47;;
61093;SDS011;46976;52.942;6.810;2022-07-29T10:02:34;7.93;;;2.72;;
61093;SDS011;46976;52.942;6.810;2022-07-29T10:05:01;8.00;;;2.50;;
61093;SDS011;46976;52.942;6.810;2022-07-29T10:07:50;6.32;;;2.60;;
61093;SDS011;46976;52.942;6.810;2022-07-29T10:10:27;7.70;;;2.40;;
61093;SDS011;46976;52.942;6.810;2022-07-29T10:12:57;8.35;;;2.30;;
61093;SDS011;46976;52.942;6.810;2022-07-29T10:15:24;7.28;;;2.47;;
61093;SDS011;46976;52.942;6.810;2022-07-29T10:17:51;7.22;;;2.35;;
61093;SDS011;46976;52.942;6.810;2022-07-29T10:20:18;7.43;;;2.40;;
61093;SDS011;46976;52.942;6.810;2022-07-29T10:22:44;9.48;;;2.75;;
61093;SDS011;46976;52.942;6.810;2022-07-29T10:25:11;8.10;;;2.47;;
61093;SDS011;46976;52.942;6.810;2022-07-29T10:27:38;6.00;;;2.22;;
61093;SDS011;46976;52.942;6.810;2022-07-29T10:30:05;7.30;;;2.38;;
61093;SDS011;46976;52.942;6.810;2022-07-29T10:32:37;8.70;;;2.80;;
61093;SDS011;46976;52.942;6.810;2022-07-29T10:43:32;8.43;;;2.40;;
61093;SDS011;46976;52.942;6.810;2022-07-29T10:46:01;7.63;;;2.40;;
61093;SDS011;46976;52.942;6.810;2022-07-29T10:48:27;8.82;;;2.50;;
61093;SDS011;46976;52.942;6.810;2022-07-29T10:50:55;5.80;;;2.38;;
61093;SDS011;46976;52.942;6.810;2022-07-29T10:53:22;10.82;;;2.75;;
61093;SDS011;46976;52.942;6.810;2022-07-29T10:55:48;6.60;;;2.35;;
61093;SDS011;46976;52.942;6.810;2022-07-29T11:00:41;6.88;;;2.33;;
61093;SDS011;46976;52.942;6.810;2022-07-29T11:03:07;9.00;;;2.65;;
61093;SDS011;46976;52.942;6.810;2022-07-29T11:05:55;6.97;;;2.30;;
61093;SDS011;46976;52.942;6.810;2022-07-29T11:10:51;8.73;;;2.60;;
61093;SDS011;46976;52.942;6.810;2022-07-29T11:16:03;7.38;;;2.47;;
61093;SDS011;46976;52.942;6.810;2022-07-29T11:18:30;6.88;;;2.53;;
61093;SDS011;46976;52.942;6.810;2022-07-29T11:20:56;8.20;;;2.60;;
61093;SDS011;46976;52.942;6.810;2022-07-29T11:23:30;8.10;;;2.40;;
61093;SDS011;46976;52.942;6.810;2022-07-29T11:31:19;6.38;;;2.42;;
61093;SDS011;46976;52.942;6.810;2022-07-29T11:33:55;7.75;;;2.75;;
61093;SDS011;46976;52.942;6.810;2022-07-29T11:36:22;7.18;;;2.60;;
61093;SDS011;46976;52.942;6.810;2022-07-29T11:38:48;7.00;;;2.60;;
61093;SDS011;46976;52.942;6.810;2022-07-29T11:43:56;8.55;;;2.72;;
61093;SDS011;46976;52.942;6.810;2022-07-29T11:49:08;6.57;;;2.60;;
61093;SDS011;46976;52.942;6.810;2022-07-29T11:51:37;10.15;;;2.72;;
61093;SDS011;46976;52.942;6.810;2022-07-29T11:54:04;6.90;;;2.80;;
61093;SDS011;46976;52.942;6.810;2022-07-29T11:56:30;9.32;;;3.00;;
61093;SDS011;46976;52.942;6.810;2022-07-29T11:59:04;7.60;;;2.55;;
61093;SDS011;46976;52.942;6.810;2022-07-29T12:01:30;7.43;;;3.28;;
61093;SDS011;46976;52.942;6.810;2022-07-29T12:04:06;6.53;;;2.70;;
61093;SDS011;46976;52.942;6.810;2022-07-29T12:06:35;9.35;;;2.80;;
61093;SDS011;46976;52.942;6.810;2022-07-29T12:09:10;8.07;;;2.50;;
61093;SDS011;46976;52.942;6.810;2022-07-29T12:11:36;8.07;;;2.50;;
61093;SDS011;46976;52.942;6.810;2022-07-29T12:14:02;7.00;;;2.60;;
61093;SDS011;46976;52.942;6.810;2022-07-29T12:16:35;6.68;;;2.92;;
61093;SDS011;46976;52.942;6.810;2022-07-29T12:19:02;8.30;;;2.92;;
61093;SDS011;46976;52.942;6.810;2022-07-29T12:21:47;7.88;;;2.72;;
61093;SDS011;46976;52.942;6.810;2022-07-29T12:24:14;7.45;;;3.05;;
61093;SDS011;46976;52.942;6.810;2022-07-29T12:29:35;8.05;;;2.92;;
61093;SDS011;46976;52.942;6.810;2022-07-29T12:32:02;8.73;;;2.88;;
61093;SDS011;46976;52.942;6.810;2022-07-29T12:34:29;6.97;;;2.83;;
61093;SDS011;46976;52.942;6.810;2022-07-29T12:36:55;7.57;;;2.70;;
61093;SDS011;46976;52.942;6.810;2022-07-29T12:39:22;6.55;;;2.50;;
61093;SDS011;46976;52.942;6.810;2022-07-29T12:41:51;8.35;;;2.90;;
61093;SDS011;46976;52.942;6.810;2022-07-29T12:44:17;7.22;;;2.80;;
61093;SDS011;46976;52.942;6.810;2022-07-29T12:46:43;5.95;;;2.63;;
61093;SDS011;46976;52.942;6.810;2022-07-29T12:49:15;6.80;;;2.60;;
61093;SDS011;46976;52.942;6.810;2022-07-29T12:51:47;8.70;;;2.35;;
61093;SDS011;46976;52.942;6.810;2022-07-29T12:54:14;10.00;;;2.97;;
61093;SDS011;46976;52.942;6.810;2022-07-29T12:56:41;6.95;;;2.30;;
61093;SDS011;46976;52.942;6.810;2022-07-29T12:59:11;7.65;;;2.10;;
61093;SDS011;46976;52.942;6.810;2022-07-29T13:01:37;9.73;;;2.40;;
61093;SDS011;46976;52.942;6.810;2022-07-29T13:04:04;7.63;;;2.25;;
61093;SDS011;46976;52.942;6.810;2022-07-29T13:09:03;7.47;;;2.40;;
61093;SDS011;46976;52.942;6.810;2022-07-29T13:11:33;9.63;;;2.38;;
61093;SDS011;46976;52.942;6.810;2022-07-29T13:14:00;6.63;;;2.28;;
61093;SDS011;46976;52.942;6.810;2022-07-29T13:16:26;5.93;;;2.42;;
61093;SDS011;46976;52.942;6.810;2022-07-29T13:19:06;7.13;;;2.35;;
61093;SDS011;46976;52.942;6.810;2022-07-29T13:21:32;7.93;;;2.40;;
61093;SDS011;46976;52.942;6.810;2022-07-29T13:23:58;8.30;;;2.15;;
61093;SDS011;46976;52.942;6.810;2022-07-29T13:26:25;7.00;;;2.38;;
61093;SDS011;46976;52.942;6.810;2022-07-29T13:28:51;7.72;;;2.45;;
61093;SDS011;46976;52.942;6.810;2022-07-29T13:31:17;6.43;;;2.42;;
61093;SDS011;46976;52.942;6.810;2022-07-29T13:33:43;8.77;;;2.22;;
61093;SDS011;46976;52.942;6.810;2022-07-29T13:36:09;5.13;;;2.00;;
61093;SDS011;46976;52.942;6.810;2022-07-29T13:38:35;6.05;;;1.98;;
61093;SDS011;46976;52.942;6.810;2022-07-29T13:41:01;7.50;;;2.17;;
61093;SDS011;46976;52.942;6.810;2022-07-29T13:43:27;7.35;;;2.55;;
61093;SDS011;46976;52.942;6.810;2022-07-29T13:45:53;10.27;;;2.33;;
61093;SDS011;46976;52.942;6.810;2022-07-29T13:48:20;9.50;;;2.60;;
61093;SDS011;46976;52.942;6.810;2022-07-29T13:50:46;6.18;;;2.40;;
61093;SDS011;46976;52.942;6.810;2022-07-29T13:53:13;5.85;;;2.30;;
61093;SDS011;46976;52.942;6.810;2022-07-29T13:55:39;7.15;;;2.50;;
61093;SDS011;46976;52.942;6.810;2022-07-29T13:58:05;7.78;;;2.60;;
61093;SDS011;46976;52.942;6.810;2022-07-29T14:00:31;8.20;;;2.25;;
61093;SDS011;46976;52.942;6.810;2022-07-29T14:02:57;6.53;;;1.83;;
61093;SDS011;46976;52.942;6.810;2022-07-29T14:05:23;5.45;;;2.20;;
61093;SDS011;46976;52.942;6.810;2022-07-29T14:07:49;7.63;;;2.35;;
61093;SDS011;46976;52.942;6.810;2022-07-29T14:10:15;6.95;;;2.30;;
61093;SDS011;46976;52.942;6.810;2022-07-29T14:12:41;8.32;;;2.30;;
61093;SDS011;46976;52.942;6.810;2022-07-29T14:15:08;5.45;;;2.15;;
61093;SDS011;46976;52.942;6.810;2022-07-29T14:17:34;7.82;;;2.13;;
61093;SDS011;46976;52.942;6.810;2022-07-29T14:20:00;7.07;;;2.40;;
61093;SDS011;46976;52.942;6.810;2022-07-29T14:22:26;7.70;;;2.40;;
61093;SDS011;46976;52.942;6.810;2022-07-29T14:24:52;7.35;;;2.22;;
61093;SDS011;46976;52.942;6.810;2022-07-29T14:27:18;7.45;;;2.17;;
61093;SDS011;46976;52.942;6.810;2022-07-29T14:29:44;6.82;;;2.22;;
61093;SDS011;46976;52.942;6.810;2022-07-29T14:32:11;5.80;;;2.40;;
61093;SDS011;46976;52.942;6.810;2022-07-29T14:34:37;8.25;;;2.40;;
61093;SDS011;46976;52.942;6.810;2022-07-29T14:37:04;6.05;;;2.20;;
61093;SDS011;46976;52.942;6.810;2022-07-29T14:39:31;6.55;;;2.28;;
61093;SDS011;46976;52.942;6.810;2022-07-29T14:41:57;6.75;;;2.30;;
61093;SDS011;46976;52.942;6.810;2022-07-29T14:44:23;8.13;;;2.42;;
61093;SDS011;46976;52.942;6.810;2022-07-29T14:46:55;8.30;;;2.45;;
61093;SDS011;46976;52.942;6.810;2022-07-29T14:49:21;6.72;;;2.20;;
61093;SDS011;46976;52.942;6.810;2022-07-29T14:51:47;8.00;;;2.10;;
61093;SDS011;46976;52.942;6.810;2022-07-29T14:54:14;7.90;;;2.20;;
61093;SDS011;46976;52.942;6.810;2022-07-29T14:56:40;6.75;;;1.88;;
61093;SDS011;46976;52.942;6.810;2022-07-29T14:59:08;7.88;;;2.10;;
61093;SDS011;46976;52.942;6.810;2022-07-29T15:01:34;7.32;;;2.17;;
61093;SDS011;46976;52.942;6.810;2022-07-29T15:04:00;6.43;;;2.10;;
61093;SDS011;46976;52.942;6.810;2022-07-29T15:06:27;7.32;;;2.05;;
61093;SDS011;46976;52.942;6.810;2022-07-29T15:08:53;7.05;;;2.05;;
61093;SDS011;46976;52.942;6.810;2022-07-29T15:11:19;8.60;;;2.17;;
61093;SDS011;46976;52.942;6.810;2022-07-29T15:13:45;6.10;;;2.10;;
61093;SDS011;46976;52.942;6.810;2022-07-29T15:16:11;6.72;;;2.05;;
61093;SDS011;46976;52.942;6.810;2022-07-29T15:18:37;5.00;;;1.95;;
61093;SDS011;46976;52.942;6.810;2022-07-29T15:21:04;6.05;;;2.03;;
61093;SDS011;46976;52.942;6.810;2022-07-29T15:23:32;7.25;;;2.10;;
61093;SDS011;46976;52.942;6.810;2022-07-29T15:26:00;5.47;;;2.20;;
61093;SDS011;46976;52.942;6.810;2022-07-29T15:28:26;5.07;;;1.70;;
61093;SDS011;46976;52.942;6.810;2022-07-29T15:30:52;6.13;;;1.80;;
61093;SDS011;46976;52.942;6.810;2022-07-29T15:33:19;8.20;;;1.92;;
61093;SDS011;46976;52.942;6.810;2022-07-29T15:35:45;5.55;;;1.77;;
61093;SDS011;46976;52.942;6.810;2022-07-29T15:38:11;6.25;;;1.88;;
61093;SDS011;46976;52.942;6.810;2022-07-29T15:40:38;8.80;;;2.70;;
61093;SDS011;46976;52.942;6.810;2022-07-29T15:43:08;5.22;;;1.67;;
61093;SDS011;46976;52.942;6.810;2022-07-29T15:45:35;5.88;;;2.20;;
61093;SDS011;46976;52.942;6.810;2022-07-29T15:50:36;6.37;;;1.93;;
61093;SDS011;46976;52.942;6.810;2022-07-29T15:53:06;5.05;;;1.60;;
61093;SDS011;46976;52.942;6.810;2022-07-29T15:55:32;5.27;;;1.80;;
61093;SDS011;46976;52.942;6.810;2022-07-29T15:57:58;5.63;;;1.75;;
61093;SDS011;46976;52.942;6.810;2022-07-29T16:00:24;5.07;;;1.65;;
61093;SDS011;46976;52.942;6.810;2022-07-29T16:02:50;4.80;;;1.45;;
61093;SDS011;46976;52.942;6.810;2022-07-29T16:05:16;4.53;;;1.58;;
61093;SDS011;46976;52.942;6.810;2022-07-29T16:07:43;5.28;;;1.65;;
61093;SDS011;46976;52.942;6.810;2022-07-29T16:10:09;6.10;;;1.70;;
61093;SDS011;46976;52.942;6.810;2022-07-29T16:12:35;4.30;;;1.60;;
61093;SDS011;46976;52.942;6.810;2022-07-29T16:15:01;3.67;;;1.52;;
61093;SDS011;46976;52.942;6.810;2022-07-29T16:17:27;5.53;;;1.50;;
61093;SDS011;46976;52.942;6.810;2022-07-29T16:19:53;5.07;;;1.52;;
61093;SDS011;46976;52.942;6.810;2022-07-29T16:22:19;4.93;;;1.50;;
61093;SDS011;46976;52.942;6.810;2022-07-29T16:24:45;5.80;;;1.63;;
61093;SDS011;46976;52.942;6.810;2022-07-29T16:27:11;5.38;;;1.70;;
61093;SDS011;46976;52.942;6.810;2022-07-29T16:29:38;6.65;;;1.90;;
61093;SDS011;46976;52.942;6.810;2022-07-29T16:32:04;6.72;;;1.88;;
61093;SDS011;46976;52.942;6.810;2022-07-29T16:34:30;6.72;;;2.03;;
61093;SDS011;46976;52.942;6.810;2022-07-29T16:36:56;6.32;;;2.00;;
61093;SDS011;46976;52.942;6.810;2022-07-29T16:39:22;6.70;;;1.67;;
61093;SDS011;46976;52.942;6.810;2022-07-29T16:41:48;8.63;;;2.05;;
61093;SDS011;46976;52.942;6.810;2022-07-29T16:44:14;5.15;;;1.73;;
61093;SDS011;46976;52.942;6.810;2022-07-29T16:46:42;6.40;;;1.95;;
61093;SDS011;46976;52.942;6.810;2022-07-29T16:49:08;5.88;;;1.80;;
61093;SDS011;46976;52.942;6.810;2022-07-29T16:51:35;5.90;;;1.70;;
61093;SDS011;46976;52.942;6.810;2022-07-29T16:54:01;6.55;;;1.90;;
61093;SDS011;46976;52.942;6.810;2022-07-29T16:56:27;5.68;;;1.80;;
61093;SDS011;46976;52.942;6.810;2022-07-29T16:58:53;6.10;;;1.80;;
61093;SDS011;46976;52.942;6.810;2022-07-29T17:01:19;7.05;;;1.98;;
61093;SDS011;46976;52.942;6.810;2022-07-29T17:03:45;5.70;;;1.88;;
61093;SDS011;46976;52.942;6.810;2022-07-29T17:06:30;5.72;;;2.00;;
61093;SDS011;46976;52.942;6.810;2022-07-29T17:08:59;6.80;;;1.80;;
61093;SDS011;46976;52.942;6.810;2022-07-29T17:11:25;7.20;;;1.90;;
61093;SDS011;46976;52.942;6.810;2022-07-29T17:13:51;6.68;;;2.13;;
61093;SDS011;46976;52.942;6.810;2022-07-29T17:16:17;7.68;;;2.03;;
61093;SDS011;46976;52.942;6.810;2022-07-29T17:18:47;6.65;;;1.77;;
61093;SDS011;46976;52.942;6.810;2022-07-29T17:21:14;6.65;;;2.00;;
61093;SDS011;46976;52.942;6.810;2022-07-29T17:23:40;6.82;;;2.22;;
61093;SDS011;46976;52.942;6.810;2022-07-29T17:26:07;6.88;;;2.00;;
61093;SDS011;46976;52.942;6.810;2022-07-29T17:28:33;4.68;;;1.88;;
61093;SDS011;46976;52.942;6.810;2022-07-29T17:30:59;6.78;;;1.90;;
61093;SDS011;46976;52.942;6.810;2022-07-29T17:33:25;5.38;;;1.60;;
61093;SDS011;46976;52.942;6.810;2022-07-29T17:35:51;5.35;;;1.88;;
61093;SDS011;46976;52.942;6.810;2022-07-29T17:38:36;7.22;;;2.08;;
61093;SDS011;46976;52.942;6.810;2022-07-29T17:41:02;7.05;;;2.00;;
61093;SDS011;46976;52.942;6.810;2022-07-29T17:43:28;9.27;;;2.15;;
61093;SDS011;46976;52.942;6.810;2022-07-29T17:45:54;8.13;;;2.10;;
61093;SDS011;46976;52.942;6.810;2022-07-29T17:48:20;6.13;;;2.00;;
61093;SDS011;46976;52.942;6.810;2022-07-29T17:50:46;6.30;;;1.90;;
61093;SDS011;46976;52.942;6.810;2022-07-29T17:53:13;8.35;;;2.05;;
61093;SDS011;46976;52.942;6.810;2022-07-29T17:55:39;7.13;;;2.13;;
61093;SDS011;46976;52.942;6.810;2022-07-29T17:58:06;7.57;;;2.30;;
61093;SDS011;46976;52.942;6.810;2022-07-29T18:00:33;7.47;;;2.25;;
61093;SDS011;46976;52.942;6.810;2022-07-29T18:02:59;7.57;;;2.47;;
61093;SDS011;46976;52.942;6.810;2022-07-29T18:05:25;7.60;;;2.20;;
61093;SDS011;46976;52.942;6.810;2022-07-29T18:07:51;8.55;;;2.60;;
61093;SDS011;46976;52.942;6.810;2022-07-29T18:10:20;7.25;;;2.40;;
61093;SDS011;46976;52.942;6.810;2022-07-29T18:12:46;7.13;;;2.10;;
61093;SDS011;46976;52.942;6.810;2022-07-29T18:15:12;6.80;;;2.33;;
61093;SDS011;46976;52.942;6.810;2022-07-29T18:17:38;6.60;;;2.30;;
61093;SDS011;46976;52.942;6.810;2022-07-29T18:20:05;8.93;;;2.58;;
61093;SDS011;46976;52.942;6.810;2022-07-29T18:22:32;7.13;;;2.20;;
61093;SDS011;46976;52.942;6.810;2022-07-29T18:24:58;6.60;;;2.50;;
61093;SDS011;46976;52.942;6.810;2022-07-29T18:27:24;8.38;;;2.45;;